Time;durP1;ratioP1;P1;durP2;ratioP2;P2;SDS_P1;SDS_P2;PMS_P1;PMS_P2;Temp;Humidity;BMP_temperature;BMP_pressure;BME280_temperature;BME280_humidity;BME280_pressure;Samples;Min_cycle;Max_cycle;Signal;HPM_P1;HPM_P2
2022/03/24 00:01:40;;;;;;;57.27;43.07;;;;;;;;;;4977341;28;20467;-71
2022/03/24 00:04:06;;;;;;;57.25;42.13;;;;;;;;;;5001124;28;20443;-71
2022/03/24 00:06:32;;;;;;;60.10;43.72;;;;;;;;;;5011988;28;20497;-71
2022/03/24 00:08:58;;;;;;;55.08;41.53;;;8.20;99.90;;;;;;5008544;28;20443;-71
2022/03/24 00:11:24;;;;;;;57.15;42.50;;;;;;;;;;5033679;28;21096;-71
2022/03/24 00:13:50;;;;;;;56.05;41.67;;;;;;;;;;4993653;28;20459;-70
2022/03/24 00:16:18;;;;;;;57.55;43.08;;;;;;;;;;4999206;28;20437;-70
2022/03/24 00:18:44;;;;;;;59.08;43.08;;;;;;;;;;5005804;28;20432;-70
2022/03/24 00:21:10;;;;;;;60.23;42.43;;;;;;;;;;4999706;28;20464;-69
2022/03/24 00:23:36;;;;;;;56.78;42.38;;;;;;;;;;4993670;28;20442;-69
2022/03/24 00:26:03;;;;;;;61.22;44.40;;;7.80;99.90;;;;;;5008988;28;20444;-69
2022/03/24 00:28:31;;;;;;;61.42;43.85;;;;;;;;;;4994425;28;20425;-70
2022/03/24 00:30:57;;;;;;;58.95;43.92;;;;;;;;;;5022764;28;20444;-70
2022/03/24 00:33:24;;;;;;;61.08;44.22;;;7.60;99.90;;;;;;4988658;28;20444;-71
2022/03/24 00:35:50;;;;;;;59.15;42.95;;;;;;;;;;5004328;28;20436;-70
2022/03/24 00:38:16;;;;;;;59.60;44.92;;;;;;;;;;4987219;28;20483;-70
2022/03/24 00:40:43;;;;;;;63.97;43.90;;;;;;;;;;4990539;28;20434;-71
2022/03/24 00:43:08;;;;;;;64.50;45.65;;;7.60;99.90;;;;;;5003265;28;20443;-71
2022/03/24 00:45:35;;;;;;;61.60;44.27;;;;;;;;;;5005154;28;20490;-71
2022/03/24 00:48:01;;;;;;;61.72;45.78;;;;;;;;;;4995556;28;20442;-71
2022/03/24 00:50:27;;;;;;;62.92;46.40;;;;;;;;;;4985440;28;20482;-71
2022/03/24 00:52:53;;;;;;;69.95;47.47;;;;;;;;;;5018073;28;20448;-71
2022/03/24 00:55:19;;;;;;;65.43;45.90;;;;;;;;;;5023276;28;20453;-71
2022/03/24 00:57:50;;;;;;;65.70;46.00;;;;;;;;;;5003284;28;21044;-71
2022/03/24 01:00:16;;;;;;;62.25;44.40;;;;;;;;;;5005636;28;20492;-70
2022/03/24 01:02:48;;;;;;;62.42;46.05;;;;;;;;;;4999926;28;20472;-70
2022/03/24 01:05:15;;;;;;;66.53;47.55;;;;;;;;;;5005768;28;20928;-71
2022/03/24 01:07:42;;;;;;;66.75;48.22;;;;;;;;;;5005684;28;20413;-71
2022/03/24 01:10:09;;;;;;;64.72;47.35;;;;;;;;;;5010596;28;20488;-70
2022/03/24 01:12:36;;;;;;;64.70;47.28;;;;;;;;;;4996304;28;20436;-71
2022/03/24 01:15:04;;;;;;;65.32;47.50;;;;;;;;;;4996090;28;20437;-70
2022/03/24 01:17:31;;;;;;;63.10;46.50;;;;;;;;;;4988393;28;21375;-69
2022/03/24 01:19:58;;;;;;;66.43;47.25;;;;;;;;;;5011202;28;20438;-71
2022/03/24 01:22:24;;;;;;;67.72;47.85;;;;;;;;;;4999197;28;20436;-71
2022/03/24 01:24:50;;;;;;;66.15;47.95;;;;;;;;;;4998640;28;20433;-71
2022/03/24 01:27:16;;;;;;;69.68;48.90;;;;;;;;;;5001221;28;20433;-69
2022/03/24 01:29:42;;;;;;;67.40;46.95;;;6.70;99.90;;;;;;4989678;28;20437;-70
2022/03/24 01:32:08;;;;;;;66.93;47.53;;;6.80;99.90;;;;;;5011419;28;20451;-70
2022/03/24 01:34:35;;;;;;;64.55;46.42;;;;;;;;;;4992155;28;20448;-70
2022/03/24 01:37:01;;;;;;;64.83;46.70;;;;;;;;;;4991984;28;20537;-70
2022/03/24 01:39:27;;;;;;;64.82;47.13;;;;;;;;;;4975701;28;20452;-70
2022/03/24 01:41:54;;;;;;;67.15;46.88;;;;;;;;;;5002332;28;20509;-70
2022/03/24 01:44:21;;;;;;;64.80;47.17;;;;;;;;;;5007461;28;20444;-70
2022/03/24 01:46:54;;;;;;;65.88;47.60;;;;;;;;;;5004082;28;20504;-70
2022/03/24 01:49:20;;;;;;;63.43;46.00;;;;;;;;;;4988028;28;20467;-70
2022/03/24 01:51:46;;;;;;;65.03;46.28;;;;;;;;;;5039688;28;20437;-70
2022/03/24 01:54:12;;;;;;;63.47;45.83;;;;;;;;;;4990043;28;20488;-70
2022/03/24 01:56:40;;;;;;;64.40;46.58;;;6.10;99.90;;;;;;5009253;28;20432;-70
2022/03/24 01:59:07;;;;;;;64.10;47.50;;;;;;;;;;5000381;28;20426;-70
2022/03/24 02:01:35;;;;;;;67.45;47.95;;;;;;;;;;4984993;28;20469;-70
2022/03/24 02:04:04;;;;;;;71.95;47.70;;;6.40;99.90;;;;;;4992683;28;20506;-70
2022/03/24 02:06:34;;;;;;;64.53;45.50;;;;;;;;;;4969918;28;20491;-70
2022/03/24 02:09:00;;;;;;;68.33;46.70;;;;;;;;;;5010338;28;20444;-70
2022/03/24 02:11:27;;;;;;;64.50;45.92;;;;;;;;;;5000956;28;20439;-70
2022/03/24 02:13:54;;;;;;;61.30;44.53;;;;;;;;;;4995094;28;20801;-70
2022/03/24 02:16:21;;;;;;;67.28;46.63;;;;;;;;;;4990253;28;20446;-70
2022/03/24 02:18:47;;;;;;;64.50;45.95;;;;;;;;;;5001217;28;20444;-70
2022/03/24 02:21:15;;;;;;;62.53;44.67;;;;;;;;;;5009451;28;20459;-70
2022/03/24 02:23:42;;;;;;;68.40;48.38;;;;;;;;;;5000408;28;21210;-70
2022/03/24 02:26:09;;;;;;;73.20;48.40;;;;;;;;;;5003580;28;20429;-70
2022/03/24 02:28:35;;;;;;;69.43;47.90;;;;;;;;;;4999318;28;20483;-69
2022/03/24 02:31:01;;;;;;;75.90;50.33;;;;;;;;;;4998987;28;20447;-70
2022/03/24 02:33:27;;;;;;;74.23;50.47;;;;;;;;;;4999504;28;20442;-70
2022/03/24 02:35:53;;;;;;;76.63;53.55;;;;;;;;;;4971016;28;20440;-70
2022/03/24 02:38:19;;;;;;;79.00;53.97;;;;;;;;;;4994473;28;20426;-70
2022/03/24 02:40:46;;;;;;;80.13;55.55;;;;;;;;;;4988366;28;20433;-70
2022/03/24 02:43:12;;;;;;;75.57;52.05;;;;;;;;;;4984258;28;20436;-69
2022/03/24 02:45:38;;;;;;;73.53;50.95;;;;;;;;;;4988375;28;20474;-70
2022/03/24 02:48:05;;;;;;;76.82;52.42;;;;;;;;;;5013682;28;21095;-70
2022/03/24 02:50:31;;;;;;;79.78;53.40;;;;;;;;;;5003613;28;20498;-70
2022/03/24 02:52:58;;;;;;;87.00;56.45;;;;;;;;;;5002973;28;20656;-70
2022/03/24 02:55:25;;;;;;;82.07;56.17;;;;;;;;;;5004184;28;20474;-70
2022/03/24 02:57:52;;;;;;;82.47;56.13;;;;;;;;;;4995591;28;20448;-70
2022/03/24 03:00:18;;;;;;;81.67;55.60;;;;;;;;;;4994819;28;20439;-70
2022/03/24 03:02:44;;;;;;;84.03;57.05;;;;;;;;;;5008232;28;20521;-70
2022/03/24 03:05:10;;;;;;;84.57;57.38;;;;;;;;;;5017589;28;20436;-70
2022/03/24 03:07:36;;;;;;;86.22;57.78;;;;;;;;;;5009699;28;21034;-70
2022/03/24 03:10:03;;;;;;;84.20;56.95;;;;;;;;;;4977844;28;20935;-69
2022/03/24 03:12:29;;;;;;;82.38;57.30;;;;;;;;;;5013059;28;20421;-71
2022/03/24 03:14:57;;;;;;;81.57;54.83;;;;;;;;;;5004092;28;20438;-70
2022/03/24 03:17:24;;;;;;;83.22;56.08;;;;;;;;;;5022868;28;20440;-70
2022/03/24 03:19:50;;;;;;;80.13;55.07;;;;;;;;;;4981975;28;20427;-70
2022/03/24 03:22:17;;;;;;;83.25;57.15;;;;;;;;;;5009444;28;20435;-70
2022/03/24 03:24:43;;;;;;;86.47;56.95;;;;;;;;;;4980627;28;20436;-70
2022/03/24 03:27:09;;;;;;;86.40;58.07;;;;;;;;;;4999813;28;21627;-70
2022/03/24 03:29:35;;;;;;;77.28;53.70;;;;;;;;;;5003298;28;20440;-70
2022/03/24 03:32:02;;;;;;;78.60;55.10;;;;;;;;;;4989819;28;20425;-70
2022/03/24 03:34:28;;;;;;;81.10;55.03;;;;;;;;;;5003535;28;20464;-70
2022/03/24 03:36:54;;;;;;;82.20;55.10;;;;;;;;;;5001855;28;20429;-71
2022/03/24 03:39:21;;;;;;;87.45;56.30;;;;;;;;;;4992437;28;20429;-70
2022/03/24 03:41:47;;;;;;;83.78;56.40;;;;;;;;;;5019962;28;20413;-70
2022/03/24 03:44:13;;;;;;;83.32;56.45;;;;;;;;;;4984496;28;20446;-70
2022/03/24 03:46:39;;;;;;;80.00;53.72;;;;;;;;;;5003362;28;20894;-70
2022/03/24 03:49:08;;;;;;;84.07;56.70;;;;;;;;;;4997459;28;20732;-70
2022/03/24 03:51:36;;;;;;;91.85;58.08;;;;;;;;;;4989998;28;20467;-70
2022/03/24 03:54:03;;;;;;;83.80;56.08;;;;;;;;;;5003689;28;20485;-71
2022/03/24 03:56:29;;;;;;;80.47;54.90;;;;;;;;;;4994455;28;20432;-70
2022/03/24 03:58:55;;;;;;;86.05;57.90;;;;;;;;;;4998352;28;21259;-70
2022/03/24 04:01:21;;;;;;;88.65;57.63;;;;;;;;;;5001932;28;20425;-70
2022/03/24 04:03:48;;;;;;;86.47;58.35;;;;;;;;;;5006980;28;20425;-70
2022/03/24 04:06:14;;;;;;;87.82;58.45;;;5.50;99.90;;;;;;4996490;28;20434;-70
2022/03/24 04:08:42;;;;;;;87.97;57.17;;;;;;;;;;4995659;28;20444;-70
2022/03/24 04:11:09;;;;;;;94.38;59.35;;;;;;;;;;5002631;28;20445;-70
2022/03/24 04:13:41;;;;;;;94.93;58.58;;;;;;;;;;5001823;28;20421;-70
2022/03/24 04:16:17;;;;;;;89.28;56.95;;;;;;;;;;4997103;28;20781;-70
2022/03/24 04:18:43;;;;;;;90.30;57.65;;;;;;;;;;4995697;28;20469;-70
2022/03/24 04:21:10;;;;;;;83.80;55.08;;;;;;;;;;4998794;28;20429;-70
2022/03/24 04:23:37;;;;;;;83.57;56.72;;;;;;;;;;5000607;28;20449;-70
2022/03/24 04:26:04;;;;;;;95.60;58.50;;;;;;;;;;5003163;28;20447;-70
2022/03/24 04:28:30;;;;;;;93.35;60.55;;;;;;;;;;5002326;28;20432;-70
2022/03/24 04:30:56;;;;;;;92.43;59.42;;;;;;;;;;5003986;28;20460;-70
2022/03/24 04:33:23;;;;;;;88.93;57.35;;;;;;;;;;5007347;28;20620;-71
2022/03/24 04:35:49;;;;;;;90.40;57.90;;;;;;;;;;5000430;28;20425;-70
2022/03/24 04:38:15;;;;;;;93.97;57.42;;;;;;;;;;4989873;28;20432;-70
2022/03/24 04:40:41;;;;;;;90.10;58.92;;;;;;;;;;4992171;28;20472;-70
2022/03/24 04:43:08;;;;;;;89.17;58.27;;;;;;;;;;4999648;28;20588;-70
2022/03/24 04:45:34;;;;;;;93.57;58.45;;;;;;;;;;5019923;28;20432;-70
2022/03/24 04:48:01;;;;;;;92.53;58.50;;;;;;;;;;5005194;28;20465;-70
2022/03/24 04:50:27;;;;;;;90.40;58.58;;;;;;;;;;4990821;28;20435;-70
2022/03/24 04:52:54;;;;;;;88.07;56.53;;;;;;;;;;4993796;28;20429;-70
2022/03/24 04:55:20;;;;;;;91.13;58.33;;;;;;;;;;5005821;28;20505;-70
2022/03/24 04:57:46;;;;;;;95.55;59.72;;;;;;;;;;4997426;28;20435;-71
2022/03/24 05:00:15;;;;;;;90.78;59.08;;;;;;;;;;5011698;28;20416;-70
2022/03/24 05:02:42;;;;;;;86.20;57.25;;;;;;;;;;5001931;28;20530;-70
2022/03/24 05:05:08;;;;;;;90.75;58.20;;;;;;;;;;4999097;28;20459;-70
2022/03/24 05:07:34;;;;;;;98.80;59.20;;;;;;;;;;4995086;28;20448;-70
2022/03/24 05:10:00;;;;;;;97.47;60.38;;;;;;;;;;5002436;28;20499;-70
2022/03/24 05:12:27;;;;;;;101.47;62.05;;;;;;;;;;5001381;28;20441;-70
2022/03/24 05:14:53;;;;;;;95.15;60.97;;;;;;;;;;5021816;28;20428;-70
2022/03/24 05:17:19;;;;;;;89.78;55.92;;;;;;;;;;5004109;28;20416;-70
2022/03/24 05:19:48;;;;;;;91.40;57.70;;;;;;;;;;5021544;28;20428;-70
2022/03/24 05:22:14;;;;;;;93.25;58.63;;;;;;;;;;4972760;28;20451;-70
2022/03/24 05:24:41;;;;;;;93.95;57.67;;;4.90;99.90;;;;;;4995191;28;20444;-70
2022/03/24 05:27:07;;;;;;;93.07;56.20;;;;;;;;;;4978500;28;20439;-70
2022/03/24 05:29:34;;;;;;;92.18;57.75;;;;;;;;;;4990700;28;20433;-70
2022/03/24 05:32:00;;;;;;;96.93;60.20;;;;;;;;;;4994137;28;20448;-70
2022/03/24 05:34:26;;;;;;;99.47;63.25;;;;;;;;;;5017615;28;20437;-70
2022/03/24 05:36:53;;;;;;;94.85;60.25;;;;;;;;;;5009785;28;20449;-70
2022/03/24 05:39:19;;;;;;;98.72;61.85;;;;;;;;;;4995149;28;20430;-70
2022/03/24 05:41:45;;;;;;;95.15;59.13;;;;;;;;;;4997638;28;20838;-70
2022/03/24 05:44:11;;;;;;;96.97;59.60;;;;;;;;;;5035150;28;20460;-70
2022/03/24 05:46:41;;;;;;;97.10;60.40;;;;;;;;;;5005051;28;20482;-70
2022/03/24 05:49:09;;;;;;;94.30;60.63;;;;;;;;;;4999190;28;20899;-70
2022/03/24 05:51:35;;;;;;;96.45;60.88;;;;;;;;;;5008272;28;21245;-69
2022/03/24 05:54:01;;;;;;;100.65;61.60;;;;;;;;;;5010300;28;20436;-70
2022/03/24 05:56:28;;;;;;;103.57;63.08;;;;;;;;;;4990930;28;20509;-70
2022/03/24 05:58:55;;;;;;;102.97;62.42;;;;;;;;;;4989678;28;20427;-70
2022/03/24 06:01:23;;;;;;;92.78;60.22;;;;;;;;;;5016593;28;20430;-70
2022/03/24 06:03:51;;;;;;;92.25;59.15;;;;;;;;;;5006723;28;20443;-70
2022/03/24 06:06:17;;;;;;;94.30;59.58;;;;;;;;;;5006576;28;20433;-70
2022/03/24 06:08:43;;;;;;;96.57;58.45;;;;;;;;;;5003477;28;20906;-70
2022/03/24 06:11:13;;;;;;;94.07;59.65;;;;;;;;;;4978969;28;20451;-70
2022/03/24 06:13:43;;;;;;;84.05;55.45;;;;;;;;;;4999753;28;20447;-70
2022/03/24 06:16:09;;;;;;;86.03;55.00;;;;;;;;;;5031363;28;20445;-70
2022/03/24 06:18:36;;;;;;;84.72;53.38;;;;;;;;;;4993325;28;20443;-70
2022/03/24 06:21:04;;;;;;;88.65;56.42;;;;;;;;;;4987559;28;20481;-71
2022/03/24 06:23:30;;;;;;;87.78;55.13;;;;;;;;;;5004230;28;21145;-70
2022/03/24 06:25:57;;;;;;;89.35;56.55;;;;;;;;;;5005792;28;20437;-71
2022/03/24 06:28:23;;;;;;;87.90;56.45;;;;;;;;;;4995402;28;20438;-71
2022/03/24 06:30:49;;;;;;;90.25;55.58;;;;;;;;;;5028751;28;20441;-71
2022/03/24 06:33:16;;;;;;;85.57;57.10;;;;;;;;;;4999403;28;20563;-71
2022/03/24 06:35:47;;;;;;;84.03;53.70;;;;;;;;;;5007270;28;20635;-71
2022/03/24 06:38:14;;;;;;;86.97;56.10;;;6.00;99.90;;;;;;4998125;28;20443;-70
2022/03/24 06:40:40;;;;;;;87.03;55.25;;;;;;;;;;5006913;28;20437;-70
2022/03/24 06:43:07;;;;;;;84.50;55.15;;;;;;;;;;4998237;28;20554;-70
2022/03/24 06:45:34;;;;;;;81.93;54.27;;;;;;;;;;5005572;28;20463;-71
2022/03/24 06:48:00;;;;;;;83.18;56.25;;;;;;;;;;5006102;28;20442;-71
2022/03/24 06:50:26;;;;;;;91.85;58.00;;;;;;;;;;4975672;28;20431;-71
2022/03/24 06:52:52;;;;;;;88.85;57.05;;;;;;;;;;5034375;28;20428;-71
2022/03/24 06:55:19;;;;;;;90.00;58.40;;;;;;;;;;5009234;28;20461;-71
2022/03/24 06:57:46;;;;;;;91.03;60.35;;;;;;;;;;5001382;28;20445;-70
2022/03/24 07:00:14;;;;;;;101.30;66.07;;;;;;;;;;4997173;28;20430;-70
2022/03/24 07:02:44;;;;;;;101.00;64.87;;;7.60;99.90;;;;;;4987791;28;20444;-70
2022/03/24 07:05:14;;;;;;;103.65;65.20;;;;;;;;;;5000848;28;20436;-71
2022/03/24 07:07:40;;;;;;;95.57;65.97;;;;;;;;;;5013246;28;20924;-71
2022/03/24 07:10:07;;;;;;;92.80;62.90;;;;;;;;;;5001557;28;20448;-70
2022/03/24 07:12:34;;;;;;;95.10;62.17;;;;;;;;;;5011073;28;20424;-70
2022/03/24 07:15:00;;;;;;;96.55;63.90;;;;;;;;;;5007201;28;20424;-72
2022/03/24 07:17:26;;;;;;;94.38;63.45;;;;;;;;;;4993031;28;20447;-71
2022/03/24 07:19:52;;;;;;;93.85;62.80;;;;;;;;;;5007689;28;20434;-71
2022/03/24 07:22:18;;;;;;;89.95;61.97;;;;;;;;;;5001927;28;20496;-71
2022/03/24 07:24:45;;;;;;;90.70;60.58;;;;;;;;;;4992917;28;20432;-72
2022/03/24 07:27:14;;;;;;;95.57;62.40;;;;;;;;;;4996426;28;20429;-71
2022/03/24 07:29:40;;;;;;;91.20;61.40;;;;;;;;;;5007881;28;20409;-71
2022/03/24 07:32:07;;;;;;;88.90;59.28;;;9.00;99.90;;;;;;5003559;28;20518;-72
2022/03/24 07:34:34;;;;;;;83.23;57.93;;;;;;;;;;4988337;28;20473;-71
2022/03/24 07:37:00;;;;;;;85.32;57.95;;;;;;;;;;4990485;28;20415;-71
2022/03/24 07:39:26;;;;;;;89.57;60.22;;;;;;;;;;5007541;28;20945;-71
2022/03/24 07:41:52;;;;;;;95.28;61.38;;;;;;;;;;4995083;28;20691;-71
2022/03/24 07:44:18;;;;;;;92.43;61.28;;;;;;;;;;4991913;28;20421;-71
2022/03/24 07:46:44;;;;;;;93.90;62.22;;;;;;;;;;4985690;28;20421;-71
2022/03/24 07:49:10;;;;;;;98.78;62.75;;;;;;;;;;4995860;28;20438;-76
2022/03/24 07:51:36;;;;;;;96.68;64.78;;;;;;;;;;5010259;28;20421;-71
2022/03/24 07:54:03;;;;;;;101.65;63.60;;;;;;;;;;4985074;28;20424;-71
2022/03/24 07:56:30;;;;;;;99.03;62.08;;;;;;;;;;4992912;28;20444;-71
2022/03/24 07:58:57;;;;;;;93.25;60.75;;;;;;;;;;4990700;28;20488;-71
2022/03/24 08:01:30;;;;;;;89.85;60.10;;;;;;;;;;5004610;28;20402;-71
2022/03/24 08:03:58;;;;;;;88.97;60.38;;;;;;;;;;4974781;28;20467;-71
2022/03/24 08:06:24;;;;;;;98.72;62.80;;;;;;;;;;5002039;28;20427;-71
2022/03/24 08:08:50;;;;;;;84.68;58.53;;;;;;;;;;5006161;28;20432;-71
2022/03/24 08:11:16;;;;;;;80.88;57.03;;;;;;;;;;4989511;28;20439;-70
2022/03/24 08:13:42;;;;;;;83.25;55.22;;;;;;;;;;4999975;28;20434;-70
2022/03/24 08:16:09;;;;;;;78.55;53.83;;;;;;;;;;5001671;28;20425;-70
2022/03/24 08:18:35;;;;;;;77.95;53.38;;;10.20;99.90;;;;;;5004463;28;20485;-70
2022/03/24 08:21:01;;;;;;;75.32;52.45;;;;;;;;;;5041550;28;21070;-70
2022/03/24 08:23:27;;;;;;;72.20;48.83;;;;;;;;;;4995160;28;20991;-71
2022/03/24 08:25:53;;;;;;;75.35;50.97;;;;;;;;;;5025383;28;20429;-70
2022/03/24 08:28:19;;;;;;;76.60;51.58;;;;;;;;;;4987353;28;20414;-70
2022/03/24 08:30:46;;;;;;;74.20;50.20;;;;;;;;;;4996497;28;20430;-70
2022/03/24 08:33:12;;;;;;;68.97;49.50;;;;;;;;;;4999737;28;20469;-70
2022/03/24 08:35:39;;;;;;;68.55;49.65;;;;;;;;;;5017860;28;20467;-70
2022/03/24 08:38:06;;;;;;;72.35;49.10;;;;;;;;;;5003851;28;20429;-70
2022/03/24 08:40:32;;;;;;;75.30;49.15;;;;;;;;;;5002365;28;20443;-70
2022/03/24 08:42:58;;;;;;;67.77;48.33;;;;;;;;;;4991243;28;21199;-69
2022/03/24 08:45:24;;;;;;;70.82;48.85;;;;;;;;;;4985894;28;20512;-68
2022/03/24 08:47:50;;;;;;;70.45;48.03;;;;;;;;;;5001197;28;20431;-68
2022/03/24 08:50:17;;;;;;;69.25;47.33;;;;;;;;;;5035437;28;20472;-69
2022/03/24 08:52:43;;;;;;;68.20;48.33;;;;;;;;;;5000981;28;20550;-69
2022/03/24 08:55:11;;;;;;;69.63;47.75;;;12.80;99.90;;;;;;5008618;28;20431;-69
2022/03/24 08:57:37;;;;;;;69.03;49.33;;;;;;;;;;4981754;28;20466;-68
2022/03/24 09:00:12;;;;;;;71.20;48.97;;;;;;;;;;5027078;28;20433;-69
2022/03/24 09:02:39;;;;;;;70.90;48.00;;;;;;;;;;4994021;28;20420;-69
2022/03/24 09:05:05;;;;;;;64.80;46.33;;;;;;;;;;5001490;28;20963;-69
2022/03/24 09:07:31;;;;;;;69.07;47.70;;;;;;;;;;5002813;28;20876;-70
2022/03/24 09:09:57;;;;;;;67.32;46.90;;;;;;;;;;5005386;28;20436;-69
2022/03/24 09:12:24;;;;;;;68.85;48.17;;;;;;;;;;5003620;28;20939;-70
2022/03/24 09:14:50;;;;;;;66.60;47.17;;;;;;;;;;4994620;28;20509;-70
2022/03/24 09:17:16;;;;;;;66.47;47.78;;;13.40;99.90;;;;;;5006426;28;20436;-70
2022/03/24 09:19:42;;;;;;;64.83;46.73;;;;;;;;;;5039666;28;20792;-71
2022/03/24 09:22:09;;;;;;;63.97;45.70;;;;;;;;;;5008731;28;20439;-69
2022/03/24 09:24:36;;;;;;;65.25;45.20;;;13.70;99.90;;;;;;4984295;28;20437;-69
2022/03/24 09:27:03;;;;;;;61.50;44.50;;;;;;;;;;5010060;28;20421;-69
2022/03/24 09:29:30;;;;;;;64.65;44.50;;;;;;;;;;5006792;28;20425;-71
2022/03/24 09:31:56;;;;;;;61.08;40.95;;;;;;;;;;4980099;28;20520;-71
2022/03/24 09:34:22;;;;;;;59.40;41.20;;;;;;;;;;4987538;28;20459;-70
2022/03/24 09:36:48;;;;;;;56.88;40.50;;;;;;;;;;4978350;28;20432;-72
2022/03/24 09:39:15;;;;;;;57.00;39.78;;;;;;;;;;5011193;28;20418;-72
2022/03/24 09:41:46;;;;;;;61.65;41.42;;;;;;;;;;4971636;28;20433;-72
2022/03/24 09:44:12;;;;;;;59.33;41.38;;;;;;;;;;5007057;28;20447;-72
2022/03/24 09:46:39;;;;;;;57.75;41.28;;;;;;;;;;5005488;28;20433;-71
2022/03/24 09:49:05;;;;;;;58.67;41.03;;;;;;;;;;5009243;28;20547;-72
2022/03/24 09:51:31;;;;;;;57.95;38.78;;;;;;;;;;5001260;28;20440;-72
2022/03/24 09:53:57;;;;;;;54.92;38.17;;;;;;;;;;5001065;28;20486;-72
2022/03/24 09:56:23;;;;;;;57.17;39.27;;;;;;;;;;4981936;28;20791;-72
2022/03/24 09:58:49;;;;;;;61.00;38.60;;;;;;;;;;4971374;28;20421;-72
2022/03/24 10:01:17;;;;;;;54.08;37.45;;;;;;;;;;5009026;28;20421;-71
2022/03/24 10:04:06;;;;;;;53.08;38.55;;;;;;;;;;4992393;28;20429;-72
2022/03/24 10:06:32;;;;;;;52.03;36.67;;;;;;;;;;4997551;28;20774;-72
2022/03/24 10:08:59;;;;;;;51.63;36.67;;;;;;;;;;4999865;28;20437;-72
2022/03/24 10:11:26;;;;;;;48.93;36.30;;;;;;;;;;4991167;28;20448;-72
2022/03/24 10:13:57;;;;;;;49.03;35.78;;;;;;;;;;4996092;28;20522;-72
2022/03/24 10:16:39;;;;;;;53.30;36.63;;;;;;;;;;5017633;28;20429;-72
2022/03/24 10:19:06;;;;;;;51.10;35.25;;;;;;;;;;5016002;28;20465;-72
2022/03/24 10:21:33;;;;;;;50.67;36.40;;;;;;;;;;4993607;28;20426;-72
2022/03/24 10:24:06;;;;;;;51.10;36.20;;;;;;;;;;5024344;27;20681;-72
2022/03/24 10:26:44;;;;;;;51.60;35.53;;;;;;;;;;4986996;28;20426;-72
2022/03/24 10:29:13;;;;;;;48.83;35.22;;;;;;;;;;4972155;28;20439;-72
2022/03/24 10:31:41;;;;;;;45.90;34.05;;;;;;;;;;4992169;28;20438;-72
2022/03/24 10:34:10;;;;;;;50.13;36.63;;;;;;;;;;5001938;28;20437;-71
2022/03/24 10:36:36;;;;;;;48.75;34.30;;;;;;;;;;4989735;28;20433;-73
2022/03/24 10:39:05;;;;;;;47.40;33.58;;;;;;;;;;5024598;28;20446;-72
2022/03/24 10:41:33;;;;;;;48.67;34.30;;;;;;;;;;5025957;28;20425;-72
2022/03/24 10:44:04;;;;;;;45.40;32.65;;;;;;;;;;4972615;28;20989;-72
2022/03/24 10:46:32;;;;;;;45.92;32.85;;;;;;;;;;4978784;28;20430;-72
2022/03/24 10:48:58;;;;;;;47.57;32.43;;;;;;;;;;5015202;28;20475;-73
2022/03/24 10:51:28;;;;;;;44.28;31.27;;;;;;;;;;4986425;28;20450;-72
2022/03/24 10:54:03;;;;;;;47.60;34.10;;;;;;;;;;5004981;28;20926;-73
2022/03/24 10:56:39;;;;;;;50.80;35.05;;;16.80;99.90;;;;;;5003046;28;20429;-72
2022/03/24 10:59:06;;;;;;;47.35;33.05;;;;;;;;;;4986145;28;20433;-72
2022/03/24 11:01:33;;;;;;;47.40;33.33;;;;;;;;;;4997461;28;20455;-72
2022/03/24 11:03:59;;;;;;;43.37;32.30;;;;;;;;;;5005976;28;20490;-72
2022/03/24 11:06:27;;;;;;;46.05;33.88;;;;;;;;;;4974133;28;20513;-72
2022/03/24 11:08:54;;;;;;;44.78;33.53;;;;;;;;;;5006885;28;21249;-72
2022/03/24 11:11:22;;;;;;;46.85;32.92;;;;;;;;;;4998646;28;20443;-72
2022/03/24 11:13:54;;;;;;;43.72;31.90;;;;;;;;;;4989416;28;20445;-72
2022/03/24 11:16:22;;;;;;;47.13;31.67;;;;;;;;;;5064393;28;20478;-73
2022/03/24 11:18:49;;;;;;;44.83;31.63;;;;;;;;;;5012955;28;20415;-72
2022/03/24 11:21:22;;;;;;;42.55;30.20;;;;;;;;;;4997767;28;20433;-73
2022/03/24 11:23:50;;;;;;;42.37;29.27;;;;;;;;;;5018306;28;20540;-73
2022/03/24 11:26:16;;;;;;;42.25;28.65;;;;;;;;;;5028380;28;20436;-72
2022/03/24 11:28:46;;;;;;;41.17;29.00;;;;;;;;;;4969758;28;20433;-73
2022/03/24 11:31:14;;;;;;;38.97;27.98;;;17.90;99.90;;;;;;4987785;28;20453;-73
2022/03/24 11:33:42;;;;;;;39.90;28.00;;;;;;;;;;4980571;28;20471;-73
2022/03/24 11:36:10;;;;;;;39.88;25.70;;;18.30;99.90;;;;;;5019386;28;20414;-74
2022/03/24 11:38:37;;;;;;;38.15;27.70;;;;;;;;;;4973358;28;20433;-72
2022/03/24 11:41:04;;;;;;;44.47;26.77;;;;;;;;;;4968431;28;20454;-73
2022/03/24 11:43:30;;;;;;;41.03;27.73;;;;;;;;;;4985170;28;20632;-72
2022/03/24 11:46:04;;;;;;;40.03;27.33;;;;;;;;;;4987846;28;20458;-73
2022/03/24 11:48:41;;;;;;;38.47;26.40;;;;;;;;;;4982072;28;20475;-73
2022/03/24 11:51:07;;;;;;;38.25;27.25;;;;;;;;;;4992272;28;20444;-73
2022/03/24 11:53:38;;;;;;;42.00;28.98;;;;;;;;;;5019059;28;20952;-73
2022/03/24 11:56:04;;;;;;;41.83;28.20;;;18.10;99.90;;;;;;5039478;28;20438;-73
2022/03/24 11:58:31;;;;;;;40.35;28.40;;;;;;;;;;4990541;28;20443;-73
2022/03/24 12:01:09;;;;;;;40.17;29.55;;;;;;;;;;4995992;28;20437;-73
2022/03/24 12:03:43;;;;;;;37.30;27.90;;;;;;;;;;4998747;28;20445;-75
2022/03/24 12:06:10;;;;;;;40.03;27.67;;;;;;;;;;4998009;28;20440;-73
2022/03/24 12:08:47;;;;;;;40.90;27.67;;;;;;;;;;4990735;28;20445;-73
2022/03/24 12:11:31;;;;;;;40.10;27.50;;;;;;;;;;5001904;28;20440;-74
2022/03/24 12:13:58;;;;;;;37.25;27.55;;;;;;;;;;4994063;28;20448;-72
2022/03/24 12:16:25;;;;;;;37.87;27.07;;;;;;;;;;4991300;28;20443;-72
2022/03/24 12:18:52;;;;;;;37.65;27.75;;;;;;;;;;4976574;28;21056;-73
2022/03/24 12:21:25;;;;;;;39.00;27.52;;;;;;;;;;5018776;28;20450;-73
2022/03/24 12:24:19;;;;;;;42.87;30.57;;;18.80;99.90;;;;;;5012134;28;20478;-72
2022/03/24 12:26:50;;;;;;;42.58;30.27;;;;;;;;;;4984996;28;21602;-72
2022/03/24 12:29:17;;;;;;;42.17;31.30;;;;;;;;;;5004283;28;20438;-72
2022/03/24 12:32:00;;;;;;;43.10;30.17;;;;;;;;;;4992768;28;20436;-72
2022/03/24 12:34:38;;;;;;;41.50;30.65;;;;;;;;;;4964172;28;20959;-72
2022/03/24 12:37:08;;;;;;;45.88;32.38;;;;;;;;;;4986031;28;20425;-73
2022/03/24 12:39:38;;;;;;;44.33;32.17;;;;;;;;;;4982015;28;20458;-72
2022/03/24 12:42:06;;;;;;;43.92;31.85;;;;;;;;;;4971037;28;20582;-71
2022/03/24 12:45:08;;;;;;;43.75;31.63;;;;;;;;;;5019766;28;20433;-72
2022/03/24 12:47:39;;;;;;;37.28;29.40;;;;;;;;;;4981026;28;20435;-72
2022/03/24 12:50:17;;;;;;;44.25;32.25;;;;;;;;;;4978862;28;20703;-73
2022/03/24 12:52:49;;;;;;;42.15;32.50;;;;;;;;;;4990517;28;20432;-73
2022/03/24 12:55:26;;;;;;;43.03;33.00;;;;;;;;;;4989352;28;20462;-74
2022/03/24 12:57:55;;;;;;;44.38;32.55;;;;;;;;;;4987360;28;20436;-73
2022/03/24 13:00:26;;;;;;;41.13;31.67;;;19.90;97.80;;;;;;4977316;28;20443;-73
2022/03/24 13:02:53;;;;;;;43.83;31.47;;;;;;;;;;4996304;28;20430;-74
2022/03/24 13:05:24;;;;;;;46.38;31.67;;;;;;;;;;4969573;28;20461;-73
2022/03/24 13:07:52;;;;;;;41.17;31.48;;;;;;;;;;4996981;28;20441;-74
2022/03/24 13:10:19;;;;;;;41.65;32.05;;;;;;;;;;5021202;27;20566;-74
2022/03/24 13:12:46;;;;;;;40.55;31.73;;;;;;;;;;5004459;28;20430;-73
2022/03/24 13:15:32;;;;;;;53.80;32.53;;;;;;;;;;4993232;28;20469;-73
2022/03/24 13:18:03;;;;;;;42.03;31.27;;;20.20;96.70;;;;;;4983724;28;20440;-74
2022/03/24 13:20:39;;;;;;;41.30;31.20;;;20.30;96.20;;;;;;5000345;28;20477;-77
2022/03/24 13:23:06;;;;;;;45.47;31.95;;;;;;;;;;4985036;28;20430;-75
2022/03/24 13:25:32;;;;;;;40.28;30.63;;;;;;;;;;4991749;28;20517;-74
2022/03/24 13:27:58;;;;;;;42.03;31.85;;;;;;;;;;4972024;28;20432;-74
2022/03/24 13:30:26;;;;;;;41.63;31.13;;;;;;;;;;5023429;28;20438;-74
2022/03/24 13:32:57;;;;;;;41.75;31.92;;;20.70;95.50;;;;;;4975564;28;20455;-74
2022/03/24 13:35:26;;;;;;;42.83;31.73;;;;;;;;;;5005461;28;20476;-75
2022/03/24 13:37:54;;;;;;;45.80;32.58;;;;;;;;;;4976292;28;20436;-73
2022/03/24 13:40:21;;;;;;;42.55;32.25;;;;;;;;;;5014788;28;21181;-71
2022/03/24 13:42:48;;;;;;;47.63;33.55;;;;;;;;;;4983709;28;20436;-74
2022/03/24 13:45:15;;;;;;;45.72;32.42;;;;;;;;;;4987450;28;20808;-73
2022/03/24 13:47:52;;;;;;;44.92;32.63;;;;;;;;;;4993658;28;20424;-70
2022/03/24 13:50:21;;;;;;;47.20;31.90;;;18.60;97.50;;;;;;5018363;27;20432;-71
2022/03/24 13:52:52;;;;;;;48.17;32.30;;;18.40;97.40;;;;;;5002113;28;20426;-70
2022/03/24 13:55:22;;;;;;;48.88;32.03;;;;;;;;;;5015856;28;21105;-70
2022/03/24 13:57:48;;;;;;;47.33;31.88;;;;;;;;;;4999985;28;20461;-71
2022/03/24 14:00:28;;;;;;;45.00;32.30;;;;;;;;;;4983862;28;20434;-71
2022/03/24 14:02:58;;;;;;;46.17;32.85;;;;;;;;;;5031999;28;20436;-70
2022/03/24 14:05:24;;;;;;;45.67;33.15;;;18.10;97.80;;;;;;4987962;28;20465;-73
2022/03/24 14:07:57;;;;;;;43.28;31.30;;;;;;;;;;4982553;28;20442;-72
2022/03/24 14:10:41;;;;;;;42.92;31.55;;;;;;;;;;5014416;28;20447;-73